createdAt,value
2022-08-04T00:01:18.959Z,3.50
2022-08-04T00:03:55.644Z,3.95
2022-08-04T00:06:36.660Z,3.65
2022-08-04T00:09:11.803Z,4.00
2022-08-04T00:11:46.058Z,3.75
2022-08-04T00:14:16.818Z,3.63
2022-08-04T00:16:45.465Z,3.80
2022-08-04T00:19:17.872Z,3.60
2022-08-04T00:21:52.955Z,3.80
2022-08-04T00:24:23.300Z,4.10
2022-08-04T00:26:54.647Z,3.75
2022-08-04T00:29:23.539Z,4.00
2022-08-04T00:31:56.885Z,4.07
2022-08-04T00:34:28.447Z,4.22
2022-08-04T00:36:59.027Z,3.50
2022-08-04T00:39:28.443Z,3.78
2022-08-04T00:42:30.889Z,3.63
2022-08-04T00:45:12.619Z,3.88
2022-08-04T00:47:52.757Z,3.80
2022-08-04T00:50:32.420Z,3.92
2022-08-04T00:53:14.449Z,4.15
2022-08-04T00:56:15.318Z,4.05
2022-08-04T00:59:00.689Z,4.30
2022-08-04T01:01:45.700Z,4.40
2022-08-04T01:04:22.199Z,3.80
2022-08-04T01:07:09.615Z,4.50
2022-08-04T01:09:51.821Z,4.40
2022-08-04T01:12:38.901Z,4.30
2022-08-04T01:15:09.088Z,4.38
2022-08-04T01:17:50.439Z,3.72
2022-08-04T01:20:23.013Z,4.28
2022-08-04T01:23:44.063Z,4.27
2022-08-04T01:26:43.332Z,4.25
2022-08-04T01:29:27.439Z,4.47
2022-08-04T01:32:06.225Z,4.03
2022-08-04T01:34:38.208Z,4.85
2022-08-04T01:37:12.780Z,4.70
2022-08-04T01:39:50.773Z,4.88
2022-08-04T01:42:31.951Z,4.75
2022-08-04T01:45:05.763Z,5.35
2022-08-04T01:50:08.021Z,4.60
2022-08-04T01:52:37.441Z,4.45
2022-08-04T01:55:10.532Z,5.07
2022-08-04T01:57:42.765Z,5.05
2022-08-04T02:00:14.710Z,4.88
2022-08-04T02:02:43.355Z,5.57
2022-08-04T02:05:13.151Z,5.07
2022-08-04T02:07:51.838Z,4.72
2022-08-04T02:10:30.314Z,5.05
2022-08-04T02:13:10.740Z,5.03
2022-08-04T02:15:57.197Z,5.35
2022-08-04T02:18:29.924Z,4.75
2022-08-04T02:21:00.939Z,5.03
2022-08-04T02:23:37.207Z,5.25
2022-08-04T02:26:08.195Z,5.30
2022-08-04T02:28:54.566Z,5.20
2022-08-04T02:31:32.008Z,5.22
2022-08-04T02:34:07.527Z,5.38
2022-08-04T02:36:38.448Z,5.10
2022-08-04T02:39:08.350Z,5.80
2022-08-04T02:41:37.474Z,5.10
2022-08-04T02:44:07.671Z,5.30
2022-08-04T02:46:39.249Z,5.43
2022-08-04T02:49:09.532Z,4.93
2022-08-04T02:51:41.481Z,5.00
2022-08-04T02:54:10.530Z,5.18
2022-08-04T02:56:40.674Z,5.32
2022-08-04T02:59:11.333Z,5.10
2022-08-04T03:01:57.193Z,5.15
2022-08-04T03:04:56.874Z,4.88
2022-08-04T03:07:58.588Z,5.70
2022-08-04T03:10:58.915Z,5.13
2022-08-04T03:13:48.477Z,5.28
2022-08-04T03:16:38.467Z,5.63
2022-08-04T03:19:42.781Z,5.78
2022-08-04T03:22:24.988Z,6.10
2022-08-04T03:25:22.848Z,5.35
2022-08-04T03:28:24.450Z,5.50
2022-08-04T03:31:09.813Z,5.20
2022-08-04T03:34:00.872Z,5.65
2022-08-04T03:37:02.546Z,5.22
2022-08-04T03:40:09.002Z,5.10
2022-08-04T03:43:59.212Z,6.70
2022-08-04T03:46:34.220Z,5.72
2022-08-04T03:49:41.166Z,5.93
2022-08-04T03:52:51.181Z,5.50
2022-08-04T03:55:47.854Z,5.80
2022-08-04T03:59:12.774Z,5.38
2022-08-04T04:02:06.722Z,5.53
2022-08-04T04:04:48.993Z,5.70
2022-08-04T04:08:02.065Z,5.78
2022-08-04T04:10:56.641Z,6.18
2022-08-04T04:13:37.269Z,5.70
2022-08-04T04:16:27.198Z,6.53
2022-08-04T04:19:23.944Z,5.85
2022-08-04T04:22:15.655Z,6.03
2022-08-04T04:25:19.150Z,6.22
2022-08-04T04:28:46.056Z,6.13
2022-08-04T04:31:10.522Z,5.28
2022-08-04T04:33:44.651Z,5.70
2022-08-04T04:36:17.974Z,6.05
2022-08-04T04:41:57.167Z,5.35
2022-08-04T04:44:46.975Z,6.10
2022-08-04T04:48:08.879Z,5.80
2022-08-04T04:50:28.515Z,6.53
2022-08-04T04:53:10.932Z,6.40
2022-08-04T04:55:48.134Z,5.97
2022-08-04T04:58:19.296Z,6.70
2022-08-04T05:01:17.829Z,6.35
2022-08-04T05:04:13.068Z,6.32
2022-08-04T05:07:07.680Z,5.90
2022-08-04T05:09:52.196Z,6.90
2022-08-04T05:14:32.293Z,5.80
2022-08-04T05:15:31.735Z,5.63
2022-08-04T05:18:03.535Z,5.80
2022-08-04T05:20:40.264Z,5.55
2022-08-04T05:23:15.664Z,5.88
2022-08-04T05:25:59.026Z,5.45
2022-08-04T05:28:33.820Z,5.60
2022-08-04T05:31:05.483Z,5.90
2022-08-04T05:33:41.172Z,5.10
2022-08-04T05:36:24.905Z,5.30
2022-08-04T05:39:03.677Z,5.50
2022-08-04T05:41:45.853Z,5.03
2022-08-04T05:44:17.939Z,5.47
2022-08-04T05:46:54.022Z,5.30
2022-08-04T05:49:26.291Z,5.00
2022-08-04T05:51:58.152Z,5.25
2022-08-04T05:54:27.467Z,5.65
2022-08-04T05:59:25.635Z,5.70
2022-08-04T06:01:57.935Z,5.20
2022-08-04T06:04:32.121Z,4.83
2022-08-04T06:07:00.995Z,4.40
2022-08-04T06:09:29.643Z,5.25
2022-08-04T06:12:03.685Z,4.95
2022-08-04T06:14:39.576Z,5.00
2022-08-04T06:18:41.157Z,4.38
2022-08-04T06:20:18.075Z,5.10
2022-08-04T06:22:54.062Z,4.57
2022-08-04T06:25:25.007Z,4.35
2022-08-04T06:27:57.033Z,4.45
2022-08-04T06:30:27.402Z,4.43
2022-08-04T06:33:03.352Z,4.85
2022-08-04T06:35:35.351Z,4.65
2022-08-04T06:38:04.215Z,4.60
2022-08-04T06:40:34.817Z,4.00
2022-08-04T06:43:05.905Z,3.70
2022-08-04T06:45:36.825Z,3.83
2022-08-04T06:48:06.464Z,3.80
2022-08-04T06:51:28.278Z,3.80
2022-08-04T06:53:27.140Z,3.92
2022-08-04T06:55:56.036Z,4.05
2022-08-04T06:58:26.114Z,3.55
2022-08-04T07:00:55.821Z,3.80
2022-08-04T07:03:24.207Z,4.20
2022-08-04T07:05:54.393Z,3.72
2022-08-04T07:08:23.868Z,3.85
2022-08-04T07:10:53.474Z,3.10
2022-08-04T07:13:23.217Z,3.58
2022-08-04T07:15:52.249Z,3.42
2022-08-04T07:18:20.361Z,3.58
2022-08-04T07:20:49.182Z,3.40
2022-08-04T07:23:25.213Z,4.00
2022-08-04T07:25:59.652Z,3.33
2022-08-04T07:28:40.838Z,2.80
2022-08-04T07:31:31.794Z,3.10
2022-08-04T07:34:17.769Z,2.90
2022-08-04T07:36:55.029Z,2.92
2022-08-04T07:39:29.157Z,2.70
2022-08-04T07:42:01.175Z,3.20
2022-08-04T07:46:59.684Z,2.72
2022-08-04T07:49:56.062Z,2.60
2022-08-04T07:52:17.313Z,2.88
2022-08-04T07:54:47.567Z,3.30
2022-08-04T07:57:39.652Z,3.03
2022-08-04T08:00:09.024Z,3.60
2022-08-04T08:02:40.500Z,3.58
2022-08-04T08:05:11.109Z,3.40
2022-08-04T08:07:50.719Z,3.58
2022-08-04T08:10:24.885Z,3.40
2022-08-04T08:12:53.785Z,3.22
2022-08-04T08:15:22.633Z,2.90
2022-08-04T08:17:58.279Z,3.17
2022-08-04T08:20:32.814Z,3.42
2022-08-04T08:23:03.467Z,3.03
2022-08-04T08:25:34.613Z,3.10
2022-08-04T08:28:05.217Z,3.30
2022-08-04T08:30:34.800Z,3.55
2022-08-04T08:33:06.368Z,2.78
2022-08-04T08:35:52.999Z,2.90
2022-08-04T08:38:30.056Z,3.40
2022-08-04T08:41:22.105Z,3.45
2022-08-04T08:44:09.013Z,3.08
2022-08-04T08:47:03.250Z,3.55
2022-08-04T08:50:03.032Z,4.10
2022-08-04T08:53:00.771Z,3.47
2022-08-04T08:55:47.663Z,3.50
2022-08-04T08:58:37.062Z,3.30
2022-08-04T09:01:14.186Z,3.63
2022-08-04T09:04:10.950Z,3.25
2022-08-04T09:07:16.829Z,3.00
2022-08-04T09:10:01.730Z,2.80
2022-08-04T09:12:35.097Z,2.85
2022-08-04T09:15:14.030Z,2.97
2022-08-04T09:17:48.683Z,3.05
2022-08-04T09:20:26.595Z,2.70
2022-08-04T09:23:07.198Z,2.95
2022-08-04T09:25:42.483Z,2.70
2022-08-04T09:28:43.691Z,2.90
2022-08-04T09:31:15.271Z,2.70
2022-08-04T09:33:52.028Z,2.83
2022-08-04T09:36:29.531Z,2.20
2022-08-04T09:39:11.246Z,2.60
2022-08-04T09:41:52.437Z,2.50
2022-08-04T09:44:49.207Z,2.20
2022-08-04T09:47:25.501Z,2.30
2022-08-04T09:50:19.683Z,2.80
2022-08-04T09:52:57.433Z,3.00
2022-08-04T09:55:54.027Z,2.53
2022-08-04T09:58:34.413Z,2.70
2022-08-04T10:01:07.506Z,2.90
2022-08-04T10:03:42.304Z,2.63
2022-08-04T10:06:26.941Z,2.60
2022-08-04T10:09:15.303Z,2.58
2022-08-04T10:11:56.928Z,2.22
2022-08-04T10:14:40.003Z,2.67
2022-08-04T10:17:24.700Z,2.20
2022-08-04T10:20:04.249Z,2.20
2022-08-04T10:22:55.567Z,2.35
2022-08-04T10:26:05.913Z,2.38
2022-08-04T10:28:31.677Z,2.20
2022-08-04T10:31:04.554Z,2.45
2022-08-04T10:33:39.302Z,2.10
2022-08-04T10:36:11.713Z,2.10
2022-08-04T10:41:19.617Z,2.23
2022-08-04T10:44:00.861Z,2.03
2022-08-04T10:46:34.682Z,2.35
2022-08-04T10:49:08.667Z,2.22
2022-08-04T10:51:58.514Z,2.25
2022-08-04T10:54:34.234Z,2.80
2022-08-04T10:57:08.628Z,2.35
2022-08-04T10:59:44.677Z,2.42
2022-08-04T11:02:27.454Z,2.00
2022-08-04T11:05:07.981Z,2.30
2022-08-04T11:07:42.718Z,2.30
2022-08-04T11:10:11.485Z,1.98
2022-08-04T11:12:41.483Z,1.80
2022-08-04T11:15:14.734Z,2.08
2022-08-04T11:17:48.500Z,1.95
2022-08-04T11:20:37.421Z,1.60
2022-08-04T11:23:10.270Z,2.13
2022-08-04T11:25:51.958Z,1.90
2022-08-04T11:28:32.232Z,1.92
2022-08-04T11:33:37.573Z,1.83
2022-08-04T11:36:14.441Z,2.00
2022-08-04T11:38:52.218Z,1.98
2022-08-04T11:41:28.026Z,1.73
2022-08-04T11:44:03.265Z,1.90
2022-08-04T11:56:12.604Z,1.88
2022-08-04T11:58:50.362Z,1.50
2022-08-04T12:01:27.777Z,1.65
2022-08-04T12:04:04.963Z,1.45
2022-08-04T12:06:40.113Z,1.40
2022-08-04T12:09:19.059Z,1.42
2022-08-04T12:11:57.491Z,1.42
2022-08-04T12:14:39.506Z,1.38
2022-08-04T12:17:08.613Z,1.15
2022-08-04T12:20:04.556Z,1.30
2022-08-04T12:22:38.711Z,1.15
2022-08-04T12:25:12.041Z,1.65
2022-08-04T12:27:49.190Z,1.38
2022-08-04T12:31:00.603Z,1.17
2022-08-04T12:33:17.980Z,0.90
2022-08-04T12:36:04.344Z,1.30
2022-08-04T12:38:49.962Z,1.45
2022-08-04T12:41:24.184Z,1.15
2022-08-04T12:43:55.573Z,1.20
2022-08-04T12:46:26.006Z,1.25
2022-08-04T12:49:00.164Z,1.50
2022-08-04T12:51:31.090Z,1.50
2022-08-04T12:54:28.986Z,1.08
2022-08-04T12:57:00.375Z,1.50
2022-08-04T12:59:32.381Z,1.63
2022-08-04T13:02:08.570Z,1.65
2022-08-04T13:04:51.364Z,1.40
2022-08-04T13:07:23.435Z,1.50
2022-08-04T13:09:52.610Z,1.50
2022-08-04T13:12:32.032Z,1.40
2022-08-04T13:15:17.992Z,1.60
2022-08-04T13:17:52.991Z,1.35
2022-08-04T13:20:35.861Z,1.75
2022-08-04T13:23:10.837Z,1.35
2022-08-04T13:26:45.195Z,1.73
2022-08-04T13:28:34.754Z,1.48
2022-08-04T13:31:08.739Z,1.43
2022-08-04T13:33:39.274Z,1.90
2022-08-04T13:36:09.454Z,1.42
2022-08-04T13:38:39.846Z,1.70
2022-08-04T13:41:08.791Z,1.70
2022-08-04T13:44:15.796Z,1.60
2022-08-04T13:46:36.539Z,1.40
2022-08-04T13:49:42.520Z,1.98
2022-08-04T13:52:01.474Z,1.60
2022-08-04T13:54:42.685Z,1.83
2022-08-04T13:57:15.163Z,1.42
2022-08-04T13:59:47.142Z,1.60
2022-08-04T14:04:58.416Z,1.35
2022-08-04T14:07:29.337Z,1.30
2022-08-04T14:10:03.888Z,1.40
2022-08-04T14:12:38.456Z,1.50
2022-08-04T14:16:01.938Z,1.48
2022-08-04T14:18:23.423Z,1.48
2022-08-04T14:21:07.442Z,1.40
2022-08-04T14:23:48.159Z,1.77
2022-08-04T14:26:32.637Z,1.75
2022-08-04T14:29:26.202Z,1.67
2022-08-04T14:40:45.965Z,1.52
2022-08-04T14:45:55.061Z,1.67
2022-08-04T14:48:26.177Z,1.70
2022-08-04T14:50:54.144Z,1.58
2022-08-04T14:53:26.513Z,1.63
2022-08-04T14:55:58.790Z,1.75
2022-08-04T15:01:09.667Z,1.80
2022-08-04T15:03:49.618Z,1.95
2022-08-04T15:08:51.947Z,1.50
2022-08-04T15:11:23.249Z,1.60
2022-08-04T15:16:20.515Z,1.58
2022-08-04T15:18:49.485Z,1.73
2022-08-04T15:21:18.759Z,1.80
2022-08-04T15:23:47.614Z,1.70
2022-08-04T15:26:19.674Z,1.58
2022-08-04T15:28:57.702Z,1.60
2022-08-04T15:32:06.961Z,1.60
2022-08-04T15:34:15.851Z,2.13
2022-08-04T15:36:57.064Z,1.73
2022-08-04T15:39:36.156Z,1.48
2022-08-04T15:42:20.989Z,1.77
2022-08-04T15:46:02.426Z,1.85
2022-08-04T15:48:29.043Z,1.35
2022-08-04T15:51:08.302Z,1.50
2022-08-04T15:54:27.248Z,2.00
2022-08-04T15:57:02.234Z,1.63
2022-08-04T16:00:15.207Z,1.70
2022-08-04T16:02:44.864Z,1.60
2022-08-04T16:05:46.347Z,1.60
2022-08-04T16:08:18.457Z,1.55
2022-08-04T16:13:19.605Z,1.92
2022-08-04T16:15:50.536Z,1.70
2022-08-04T16:18:39.393Z,1.60
2022-08-04T16:21:18.061Z,1.45
2022-08-04T16:24:06.386Z,1.80
2022-08-04T16:26:54.850Z,1.70
2022-08-04T16:29:39.943Z,1.73
2022-08-04T16:32:19.750Z,2.65
2022-08-04T16:34:56.468Z,1.45
2022-08-04T16:37:30.616Z,2.30
2022-08-04T16:40:36.430Z,1.83
2022-08-04T16:43:08.488Z,1.90
2022-08-04T16:45:44.457Z,1.98
2022-08-04T16:48:14.039Z,2.03
2022-08-04T16:50:56.293Z,1.80
2022-08-04T16:53:52.894Z,1.90
2022-08-04T16:56:18.905Z,1.92
2022-08-04T16:58:53.724Z,1.70
2022-08-04T17:01:32.991Z,1.75
2022-08-04T17:04:06.261Z,1.80
2022-08-04T17:06:37.941Z,1.40
2022-08-04T17:09:08.189Z,1.70
2022-08-04T17:11:36.154Z,1.98
2022-08-04T17:14:06.061Z,2.03
2022-08-04T17:16:36.976Z,1.70
2022-08-04T17:19:06.380Z,2.15
2022-08-04T17:21:38.111Z,1.83
2022-08-04T17:24:16.037Z,2.15
2022-08-04T17:26:53.463Z,2.00
2022-08-04T17:29:43.578Z,1.92
2022-08-04T17:32:18.732Z,1.70
2022-08-04T17:34:51.267Z,1.80
2022-08-04T17:37:40.181Z,1.98
2022-08-04T17:40:11.481Z,2.00
2022-08-04T17:48:24.806Z,2.05
2022-08-04T17:50:53.985Z,2.63
2022-08-04T17:54:01.606Z,2.22
2022-08-04T17:56:51.393Z,1.98
2022-08-04T17:59:56.148Z,1.95
2022-08-04T18:02:11.614Z,1.92
2022-08-04T18:05:06.285Z,1.48
2022-08-04T18:08:45.403Z,1.60
2022-08-04T18:10:51.911Z,1.80
2022-08-04T18:13:26.003Z,2.00
2022-08-04T18:16:02.902Z,1.77
2022-08-04T18:18:32.380Z,2.00
2022-08-04T18:21:03.019Z,2.13
2022-08-04T18:26:04.023Z,1.77
2022-08-04T18:28:33.300Z,1.80
2022-08-04T18:31:02.902Z,2.00
2022-08-04T18:33:39.992Z,1.90
2022-08-04T18:39:13.105Z,1.83
2022-08-04T18:41:51.573Z,1.80
2022-08-04T18:44:31.600Z,3.33
2022-08-04T18:47:22.362Z,2.60
2022-08-04T18:50:59.786Z,1.85
2022-08-04T18:52:45.353Z,2.05
2022-08-04T18:55:56.111Z,2.03
2022-08-04T18:58:06.498Z,2.35
2022-08-04T19:03:05.857Z,2.00
2022-08-04T19:05:41.551Z,2.00
2022-08-04T19:08:33.135Z,2.10
2022-08-04T19:11:00.501Z,2.53
2022-08-04T19:13:34.871Z,1.73
2022-08-04T19:16:03.800Z,1.88
2022-08-04T19:18:45.054Z,2.17
2022-08-04T19:21:14.304Z,2.60
2022-08-04T19:24:23.498Z,1.85
2022-08-04T19:30:14.683Z,2.13
2022-08-04T19:39:44.484Z,2.15
2022-08-04T19:42:22.101Z,2.03
2022-08-04T19:54:43.660Z,2.08
2022-08-04T20:00:33.999Z,2.35
2022-08-04T20:03:22.608Z,2.20
2022-08-04T20:16:30.449Z,2.30
2022-08-04T20:46:35.338Z,2.60
2022-08-04T20:49:03.732Z,2.58
2022-08-04T20:51:33.736Z,2.30
2022-08-04T20:54:16.709Z,2.33
2022-08-04T20:56:51.061Z,2.25
2022-08-04T20:59:34.334Z,2.55
2022-08-04T21:02:07.109Z,2.50
2022-08-04T21:04:48.582Z,2.55
2022-08-04T21:07:17.102Z,2.70
2022-08-04T21:09:49.966Z,2.33
2022-08-04T21:12:27.170Z,2.38
2022-08-04T21:15:00.143Z,2.65
2022-08-04T21:17:59.383Z,2.35
2022-08-04T21:20:24.652Z,2.42
2022-08-04T21:22:59.866Z,2.33
2022-08-04T21:25:30.855Z,2.50
2022-08-04T21:28:04.459Z,2.42
2022-08-04T21:30:52.572Z,2.60
2022-08-04T21:33:23.289Z,2.70
2022-08-04T21:35:54.298Z,3.30
2022-08-04T21:38:27.892Z,2.47
2022-08-04T21:41:01.425Z,2.65
2022-08-04T21:43:34.466Z,2.88
2022-08-04T21:46:11.923Z,2.53
2022-08-04T21:48:42.416Z,2.60
2022-08-04T21:51:21.681Z,2.38
2022-08-04T21:54:08.104Z,2.45
2022-08-04T21:56:39.917Z,2.50
2022-08-04T21:59:14.359Z,2.67
2022-08-04T22:01:51.848Z,2.83
2022-08-04T22:04:22.575Z,2.30
2022-08-04T22:06:52.047Z,2.78
2022-08-04T22:09:22.359Z,3.08
2022-08-04T22:11:52.213Z,2.30
2022-08-04T22:14:29.427Z,2.47
2022-08-04T22:17:04.121Z,2.60
2022-08-04T22:19:49.879Z,4.07
2022-08-04T22:22:25.194Z,2.80
2022-08-04T22:24:58.387Z,4.25
2022-08-04T22:27:47.335Z,3.20
2022-08-04T22:30:18.167Z,2.80
2022-08-04T22:32:47.255Z,2.85
2022-08-04T22:35:36.617Z,2.45
2022-08-04T22:38:24.545Z,2.63
2022-08-04T22:40:58.080Z,2.90
2022-08-04T22:43:32.826Z,2.67
2022-08-04T22:46:07.609Z,2.90
2022-08-04T22:48:37.678Z,2.88
2022-08-04T22:51:08.664Z,2.50
2022-08-04T22:53:37.503Z,2.80
2022-08-04T22:56:10.560Z,2.70
2022-08-04T22:58:45.417Z,2.95
2022-08-04T23:01:19.507Z,2.90
2022-08-04T23:03:55.111Z,3.13
2022-08-04T23:06:28.310Z,2.95
2022-08-04T23:08:57.394Z,2.80
2022-08-04T23:11:34.750Z,3.65
2022-08-04T23:14:04.564Z,2.80
2022-08-04T23:16:32.938Z,3.10
2022-08-04T23:19:09.868Z,3.00
2022-08-04T23:21:47.257Z,2.60
2022-08-04T23:24:16.337Z,2.70
2022-08-04T23:26:44.421Z,2.53
2022-08-04T23:29:12.445Z,2.30
2022-08-04T23:31:59.519Z,2.75
2022-08-04T23:34:29.564Z,2.72
2022-08-04T23:36:59.398Z,3.05
2022-08-04T23:39:42.323Z,2.95
2022-08-04T23:42:20.917Z,3.55
2022-08-04T23:44:49.931Z,3.20
2022-08-04T23:48:18.792Z,3.10
2022-08-04T23:50:06.898Z,2.78
2022-08-04T23:52:36.510Z,3.25
2022-08-04T23:55:07.366Z,2.72
2022-08-04T23:58:05.373Z,2.55
